Time;durP1;ratioP1;P1;durP2;ratioP2;P2;SDS_P1;SDS_P2;PMS_P1;PMS_P2;Temp;Humidity;BMP_temperature;BMP_pressure;BME280_temperature;BME280_humidity;BME280_pressure;Samples;Min_cycle;Max_cycle;Signal;HPM_P1;HPM_P2
2022/04/12 00:00:45;;;;;;;;;;;;;;;5.80;48.40;100008.44;5250390;27;33731;-92
2022/04/12 00:03:14;;;;;;;;;;;;;;;5.94;48.00;100009.47;5250354;27;33617;-92
2022/04/12 00:05:42;;;;;;;;;;;;;;;6.34;46.58;100009.00;5250496;27;33842;-91
2022/04/12 00:08:11;;;;;;;;;;;;;;;6.16;47.05;99994.22;5255218;27;34164;-90
2022/04/12 00:10:39;;;;;;;;;;;;;;;6.22;47.07;100009.75;5249602;27;35536;-93
2022/04/12 00:13:09;;;;;;;;;;;;;;;6.37;46.60;100007.31;5250465;27;33801;-90
2022/04/12 00:15:37;;;;;;;;;;;;;;;6.38;46.75;100006.47;5249771;27;34964;-91
2022/04/12 00:20:53;;;;;;;;;;;;;;;6.24;47.15;100002.03;5251088;27;34354;-93
2022/04/12 00:23:22;;;;;;;;;;;;;;;6.21;47.26;99995.16;5255758;27;34206;-94
2022/04/12 00:25:50;;;;;;;;;;;;;;;6.09;47.38;99997.59;5249825;27;33754;-91
2022/04/12 00:28:20;;;;;;;;;;;;;;;6.20;47.36;99995.97;5249903;27;34005;-91
2022/04/12 00:30:49;;;;;;;;;;;;;;;6.28;47.10;100001.19;5250002;27;34108;-92
2022/04/12 00:33:17;;;;;;;;;;;;;;;6.30;47.07;99990.06;5250233;27;33661;-92
2022/04/12 00:35:46;;;;;;;;;;;;;;;6.20;46.95;99988.25;5255172;27;34557;-93
2022/04/12 00:38:17;;;;;;;;;;;;;;;5.96;47.79;99982.00;5249815;27;34294;-93
2022/04/12 00:40:46;;;;;;;;;;;;;;;6.08;47.35;99985.56;5230294;27;33288;-93
2022/04/12 00:43:16;;;;;;;;;;;;;;;6.01;47.42;99986.34;5250421;27;33755;-93
2022/04/12 00:45:46;;;;;;;;;;;;;;;5.97;47.48;99986.31;5250116;27;34836;-91
2022/04/12 00:48:14;;;;;;;;;;;;;;;6.02;47.44;99988.94;5255625;27;33859;-93
2022/04/12 00:50:43;;;;;;;;;;;;;;;6.02;47.98;99988.94;5250174;27;35100;-93
2022/04/12 00:53:11;;;;;;;;;;;;;;;5.87;48.13;99983.59;5248849;27;32195;-92
2022/04/12 00:55:39;;;;;;;;;;;;;;;6.10;47.51;99982.16;5249851;27;34222;-92
2022/04/12 00:58:08;;;;;;;;;;;;;;;6.10;47.67;99978.72;5250235;27;33922;-92
2022/04/12 01:00:37;;;;;;;;;;;;;;;6.10;47.40;99989.03;5255289;27;34302;-90
2022/04/12 01:03:07;;;;;;;;;;;;;;;5.99;48.11;99991.47;5250453;27;34142;-92
2022/04/12 01:05:36;;;;;;;;;;;;;;;6.13;48.54;99991.63;5248652;27;33496;-92
2022/04/12 01:08:05;;;;;;;;;;;;;;;6.15;48.78;99989.94;5249637;27;34652;-91
2022/04/12 01:10:34;;;;;;;;;;;;;;;6.22;47.52;99983.13;5250118;27;34266;-93
2022/04/12 01:13:02;;;;;;;;;;;;;;;6.20;47.84;99977.94;5250179;27;33603;-95
2022/04/12 01:15:31;;;;;;;;;;;;;;;6.17;47.57;99983.09;5255392;27;34254;-91
2022/04/12 01:17:59;;;;;;;;;;;;;;;5.71;48.77;99980.88;5249138;27;34760;-90
2022/04/12 01:20:30;;;;;;;;;;;;;;;6.06;48.24;99989.84;5250660;27;34287;-91
2022/04/12 01:23:00;;;;;;;;;;;;;;;6.06;48.03;99982.09;5250130;27;33158;-91
2022/04/12 01:25:30;;;;;;;;;;;;;;;5.88;48.45;99975.91;5249578;27;33513;-93
2022/04/12 01:27:59;;;;;;;;;;;;;;;5.74;48.79;99982.59;5255029;27;34236;-93
2022/04/12 01:30:27;;;;;;;;;;;;;;;5.89;48.37;99974.19;5249543;27;35080;-94
2022/04/12 01:32:58;;;;;;;;;;;;;;;5.85;48.31;99973.28;5249721;27;33125;-94
2022/04/12 01:35:27;;;;;;;;;;;;;;;5.75;48.58;99971.44;5250259;27;34833;-92
2022/04/12 01:37:55;;;;;;;;;;;;;;;5.64;49.02;99973.06;5249695;27;34987;-92
2022/04/12 01:40:24;;;;;;;;;;;;;;;5.72;48.99;99981.72;5253884;27;33841;-90
2022/04/12 01:42:54;;;;;;;;;;;;;;;5.65;49.30;99977.34;5250282;27;33642;-91
2022/04/12 01:45:24;;;;;;;;;;;;;;;5.66;49.21;99969.66;5250528;27;34269;-95
2022/04/12 01:47:53;;;;;;;;;;;;;;;5.59;49.01;99969.56;5248274;27;33268;-92
2022/04/12 01:50:21;;;;;;;;;;;;;;;5.41;49.37;99976.22;5249549;27;34138;-89
2022/04/12 01:52:50;;;;;;;;;;;;;;;5.52;49.15;99978.94;5254806;27;33604;-91
2022/04/12 01:55:19;;;;;;;;;;;;;;;5.54;49.36;99977.25;5254777;27;34426;-90
2022/04/12 01:57:57;;;;;;;;;;;;;;;5.50;49.53;99983.19;5250015;27;34378;-92
2022/04/12 02:00:25;;;;;;;;;;;;;;;5.25;50.29;99980.31;5230461;27;34459;-92
2022/04/12 02:02:54;;;;;;;;;;;;;;;5.24;50.25;99975.12;5249820;27;33521;-91
2022/04/12 02:05:23;;;;;;;;;;;;;;;5.19;50.45;99981.94;5249902;27;34541;-92
2022/04/12 02:07:51;;;;;;;;;;;;;;;5.38;50.10;99975.31;5255077;27;34182;-92
2022/04/12 02:10:21;;;;;;;;;;;;;;;5.37;50.19;99976.19;5249870;27;35246;-91
2022/04/12 02:12:49;;;;;;;;;;;;;;;5.43;50.08;99974.53;5249663;27;34197;-91
2022/04/12 02:15:19;;;;;;;;;;;;;;;5.45;49.96;99987.41;5251203;27;33599;-94
2022/04/12 02:17:48;;;;;;;;;;;;;;;5.45;49.95;99979.69;5231429;27;35341;-90
2022/04/12 02:20:16;;;;;;;;;;;;;;;5.34;50.21;99977.00;5256404;27;35123;-92
2022/04/12 02:22:45;;;;;;;;;;;;;;;5.20;50.82;99970.81;5250677;27;33535;-91
2022/04/12 02:25:13;;;;;;;;;;;;;;;5.24;50.64;99977.72;5250335;27;34862;-91
2022/04/12 02:27:42;;;;;;;;;;;;;;;5.28;50.67;99974.34;5252900;27;34332;-91
2022/04/12 02:30:12;;;;;;;;;;;;;;;5.34;50.77;99969.28;5250202;27;34299;-93
2022/04/12 02:32:45;;;;;;;;;;;;;;;5.19;51.22;99971.66;5256199;27;34038;-91
2022/04/12 02:35:14;;;;;;;;;;;;;;;5.11;51.59;99974.97;5256487;27;34066;-90
2022/04/12 02:37:42;;;;;;;;;;;;;;;5.17;51.75;99973.31;5231421;27;32872;-90
2022/04/12 02:40:11;;;;;;;;;;;;;;;5.12;51.94;99974.16;5250526;27;34464;-92
2022/04/12 02:42:40;;;;;;;;;;;;;;;5.18;52.03;99980.22;5250377;27;33625;-90
2022/04/12 02:45:09;;;;;;;;;;;;;;;5.22;52.04;99976.81;5249559;27;33609;-91
2022/04/12 02:47:37;;;;;;;;;;;;;;;5.17;52.20;99978.47;5255877;27;35006;-91
2022/04/12 02:50:07;;;;;;;;;;;;;;;5.21;51.87;99977.69;5250465;27;34110;-93
2022/04/12 02:52:36;;;;;;;;;;;;;;;5.11;52.04;99976.69;5251240;27;33203;-91
2022/04/12 02:55:05;;;;;;;;;;;;;;;4.98;52.63;99980.81;5250971;27;32914;-94
2022/04/12 02:57:33;;;;;;;;;;;;;;;5.01;52.40;99978.28;5251352;27;34367;-92
2022/04/12 03:00:02;;;;;;;;;;;;;;;5.11;51.74;99985.25;5253982;27;33184;-90
2022/04/12 03:02:31;;;;;;;;;;;;;;;5.06;51.78;99986.91;5250757;27;33787;-92
2022/04/12 03:04:59;;;;;;;;;;;;;;;4.98;51.99;99990.22;5251013;27;34501;-93
2022/04/12 03:07:29;;;;;;;;;;;;;;;4.84;52.73;99990.03;5250713;27;33485;-94
2022/04/12 03:09:58;;;;;;;;;;;;;;;5.07;51.90;99996.38;5250958;27;34609;-93
2022/04/12 03:12:26;;;;;;;;;;;;;;;4.97;52.01;99994.50;5256561;27;33863;-91
2022/04/12 03:14:55;;;;;;;;;;;;;;;5.15;51.71;99986.19;5251387;27;34898;-92
2022/04/12 03:17:23;;;;;;;;;;;;;;;5.25;51.48;99984.59;5251108;27;34966;-91
2022/04/12 03:19:52;;;;;;;;;;;;;;;5.20;51.44;99984.53;5249817;27;34266;-92
2022/04/12 03:22:20;;;;;;;;;;;;;;;5.13;51.58;99988.72;5249073;27;32784;-94
2022/04/12 03:24:50;;;;;;;;;;;;;;;5.07;51.86;99983.53;5256373;27;33914;-91
2022/04/12 03:27:19;;;;;;;;;;;;;;;5.24;51.52;99990.56;5254305;27;34277;-92
2022/04/12 03:29:47;;;;;;;;;;;;;;;5.10;51.92;99982.69;5250930;27;33813;-90
2022/04/12 03:32:20;;;;;;;;;;;;;;;5.18;51.90;99987.94;5251163;27;34144;-93
2022/04/12 03:34:50;;;;;;;;;;;;;;;5.17;51.85;99986.19;5231445;27;34120;-93
2022/04/12 03:37:18;;;;;;;;;;;;;;;5.09;51.94;99989.50;5251596;27;33777;-90
2022/04/12 03:39:47;;;;;;;;;;;;;;;5.19;51.25;99993.06;5256600;27;34616;-94
2022/04/12 03:42:18;;;;;;;;;;;;;;;5.12;51.65;100004.13;5251362;27;33597;-95
2022/04/12 03:44:46;;;;;;;;;;;;;;;5.03;51.82;99998.88;5251040;27;33541;-92
2022/04/12 03:47:15;;;;;;;;;;;;;;;5.05;51.77;100002.31;5250575;27;34213;-92
2022/04/12 03:49:44;;;;;;;;;;;;;;;4.97;51.80;100001.34;5250503;27;34191;-92
2022/04/12 03:52:12;;;;;;;;;;;;;;;5.01;51.86;100004.00;5256321;27;33481;-91
2022/04/12 03:54:40;;;;;;;;;;;;;;;5.06;51.70;100006.63;5251037;27;34318;-91
2022/04/12 03:57:09;;;;;;;;;;;;;;;4.98;51.87;100006.53;5231578;27;32595;-93
2022/04/12 03:59:39;;;;;;;;;;;;;;;4.88;52.27;100007.19;5250139;27;33927;-91
2022/04/12 04:02:07;;;;;;;;;;;;;;;4.94;51.87;100017.59;5251495;27;33596;-93
2022/04/12 04:04:36;;;;;;;;;;;;;;;4.68;52.43;100018.03;5256150;27;34123;-91
2022/04/12 04:07:05;;;;;;;;;;;;;;;4.66;52.58;100014.63;5250769;27;34965;-91
2022/04/12 04:09:33;;;;;;;;;;;;;;;4.78;52.32;100013.06;5250629;27;34803;-95
2022/04/12 04:12:03;;;;;;;;;;;;;;;4.75;52.46;100015.59;5251262;27;33543;-92
2022/04/12 04:14:33;;;;;;;;;;;;;;;4.87;52.25;100015.78;5250665;27;33113;-91
2022/04/12 04:17:03;;;;;;;;;;;;;;;4.78;52.43;100013.91;5251158;27;34110;-90
2022/04/12 04:19:32;;;;;;;;;;;;;;;4.64;52.99;100013.72;5253265;27;33234;-93
2022/04/12 04:22:01;;;;;;;;;;;;;;;4.72;53.01;100010.41;5250892;27;33692;-90
2022/04/12 04:24:35;;;;;;;;;;;;;;;4.76;52.80;100012.16;5250355;27;33705;-93
2022/04/12 04:27:05;;;;;;;;;;;;;;;4.78;52.47;100015.62;5249959;27;35086;-92
2022/04/12 04:29:35;;;;;;;;;;;;;;;4.78;52.42;100021.62;5249247;27;34115;-93
2022/04/12 04:32:05;;;;;;;;;;;;;;;4.84;52.56;100013.16;5255161;27;33508;-94
2022/04/12 04:34:34;;;;;;;;;;;;;;;4.88;52.59;100015.81;5249539;27;34272;-89
2022/04/12 04:37:02;;;;;;;;;;;;;;;4.82;52.66;100018.28;5249444;27;34305;-89
2022/04/12 04:39:31;;;;;;;;;;;;;;;4.89;52.31;100016.66;5249924;27;35004;-89
2022/04/12 04:41:59;;;;;;;;;;;;;;;4.88;52.07;100012.34;5250096;27;33242;-93
2022/04/12 04:44:28;;;;;;;;;;;;;;;5.09;50.97;100017.81;5255795;27;34882;-92
2022/04/12 04:46:56;;;;;;;;;;;;;;;4.97;52.03;100019.34;5250277;27;35156;-91
2022/04/12 04:49:26;;;;;;;;;;;;;;;5.13;52.16;100022.16;5250103;27;35238;-94
2022/04/12 04:51:55;;;;;;;;;;;;;;;5.11;52.64;100026.41;5250157;27;33302;-90
2022/04/12 04:54:23;;;;;;;;;;;;;;;5.36;52.09;100029.31;5249873;27;34587;-91
2022/04/12 04:56:52;;;;;;;;;;;;;;;5.53;51.41;100024.38;5254483;27;34932;-90
2022/04/12 04:59:20;;;;;;;;;;;;;;;5.77;50.69;100032.44;5254339;27;34443;-90
2022/04/12 05:01:55;;;;;;;;;;;;;;;5.80;49.06;100035.88;5249697;27;33310;-92
2022/04/12 05:04:23;;;;;;;;;;;;;;;5.84;49.01;100038.50;5249610;27;34755;-91
2022/04/12 05:06:53;;;;;;;;;;;;;;;6.08;47.98;100039.66;5249547;27;34251;-92
2022/04/12 05:09:22;;;;;;;;;;;;;;;5.97;48.57;100042.12;5215905;27;867512;-92
2022/04/12 05:11:50;;;;;;;;;;;;;;;6.28;48.17;100043.31;5254648;27;33525;-91
2022/04/12 05:14:19;;;;;;;;;;;;;;;6.50;47.29;100049.53;5247961;27;34261;-90
2022/04/12 05:16:47;;;;;;;;;;;;;;;6.51;48.29;100056.41;5252525;27;35010;-91
2022/04/12 05:19:16;;;;;;;;;;;;;;;6.97;47.05;100048.19;5249655;27;35164;-92
2022/04/12 05:21:44;;;;;;;;;;;;;;;7.21;46.83;100045.75;5249510;27;33137;-90
2022/04/12 05:24:14;;;;;;;;;;;;;;;7.92;46.21;100051.25;5255281;27;34336;-92
2022/04/12 05:26:42;;;;;;;;;;;;;;;8.61;45.19;100054.00;5249369;27;35012;-92
2022/04/12 05:29:11;;;;;;;;;;;;;;;8.99;43.49;100058.34;5249554;27;34264;-92
2022/04/12 05:31:39;;;;;;;;;;;;;;;9.67;41.67;100055.59;5249634;27;34198;-93
2022/04/12 05:34:08;;;;;;;;;;;;;;;10.63;39.39;100047.31;5250289;27;33870;-91
2022/04/12 05:36:36;;;;;;;;;;;;;;;10.82;38.70;100052.31;5255596;27;33872;-91
2022/04/12 05:39:05;;;;;;;;;;;;;;;10.84;38.99;100061.81;5249914;27;35095;-93
2022/04/12 05:41:34;;;;;;;;;;;;;;;10.67;39.64;100063.69;5249321;27;33525;-88
2022/04/12 05:44:06;;;;;;;;;;;;;;;9.94;40.87;100065.84;5249615;27;35013;-89
2022/04/12 05:46:34;;;;;;;;;;;;;;;9.58;42.25;100061.66;5249630;27;33890;-90
2022/04/12 05:49:03;;;;;;;;;;;;;;;8.48;44.65;100072.94;5249719;27;34284;-91
2022/04/12 05:51:32;;;;;;;;;;;;;;;8.27;45.54;100071.19;5254644;27;33704;-90
2022/04/12 05:54:00;;;;;;;;;;;;;;;7.33;48.29;100073.34;5250048;27;34077;-89
2022/04/12 05:56:28;;;;;;;;;;;;;;;7.52;48.43;100068.31;5249025;27;35017;-89
2022/04/12 05:58:58;;;;;;;;;;;;;;;7.42;49.27;100072.56;5249380;27;34786;-90
2022/04/12 06:01:27;;;;;;;;;;;;;;;7.93;47.98;100075.38;5249475;27;34284;-90
2022/04/12 06:03:55;;;;;;;;;;;;;;;7.69;48.81;100077.00;5254516;27;34872;-90
2022/04/12 06:06:24;;;;;;;;;;;;;;;7.22;49.99;100083.63;5249559;27;34754;-93
2022/04/12 06:08:52;;;;;;;;;;;;;;;7.45;49.83;100080.31;5249037;27;32672;-90
2022/04/12 06:11:21;;;;;;;;;;;;;;;7.15;50.38;100081.84;5249177;27;33305;-92
2022/04/12 06:13:49;;;;;;;;;;;;;;;7.56;49.69;100082.94;5249217;27;34841;-90
2022/04/12 06:16:19;;;;;;;;;;;;;;;7.37;49.78;100085.44;5254886;27;34171;-91
2022/04/12 06:18:47;;;;;;;;;;;;;;;7.21;50.51;100086.19;5249230;27;36038;-89
2022/04/12 06:21:16;;;;;;;;;;;;;;;7.55;49.46;100078.66;5248662;27;33011;-93
2022/04/12 06:23:45;;;;;;;;;;;;;;;7.61;49.08;100095.03;5249176;27;34925;-93
2022/04/12 06:26:15;;;;;;;;;;;;;;;7.91;48.36;100096.03;5249858;27;35139;-92
2022/04/12 06:28:44;;;;;;;;;;;;;;;8.05;47.59;100091.78;5254875;27;34542;-90
2022/04/12 06:31:12;;;;;;;;;;;;;;;8.26;47.93;100092.69;5248931;27;33535;-89
2022/04/12 06:33:43;;;;;;;;;;;;;;;7.77;47.81;100093.38;5249316;27;34040;-91
2022/04/12 06:36:11;;;;;;;;;;;;;;;8.44;45.97;100099.69;5249750;27;34491;-90
2022/04/12 06:38:41;;;;;;;;;;;;;;;8.05;46.66;100089.19;5249359;27;34479;-93
2022/04/12 06:41:11;;;;;;;;;;;;;;;7.56;45.78;100094.13;5250580;27;33753;-92
2022/04/12 06:43:40;;;;;;;;;;;;;;;8.56;44.56;100102.28;5255206;27;33850;-92
2022/04/12 06:46:09;;;;;;;;;;;;;;;8.53;45.44;100099.72;5249098;27;35007;-93
2022/04/12 06:48:38;;;;;;;;;;;;;;;8.46;44.40;100105.72;5249372;27;34632;-89
2022/04/12 06:51:08;;;;;;;;;;;;;;;8.94;43.39;100104.06;5249315;27;33440;-93
2022/04/12 06:53:37;;;;;;;;;;;;;;;8.63;42.80;100098.00;5248978;27;34676;-90
2022/04/12 06:56:06;;;;;;;;;;;;;;;8.09;43.31;100093.53;5253112;27;33465;-90
2022/04/12 06:58:35;;;;;;;;;;;;;;;8.88;43.04;100102.31;5248758;27;35311;-93
2022/04/12 07:01:05;;;;;;;;;;;;;;;9.39;41.36;100095.34;5248925;27;33656;-92
2022/04/12 07:03:38;;;;;;;;;;;;;;;9.45;41.68;100094.50;5250093;27;34646;-93
2022/04/12 07:06:08;;;;;;;;;;;;;;;9.55;41.42;100095.34;5249836;27;33881;-90
2022/04/12 07:08:40;;;;;;;;;;;;;;;8.82;43.04;100091.97;5255287;27;34474;-89
2022/04/12 07:11:09;;;;;;;;;;;;;;;9.37;41.45;100101.41;5251705;27;35096;-89
2022/04/12 07:13:38;;;;;;;;;;;;;;;8.91;41.02;100104.03;5249592;27;34369;-90
2022/04/12 07:16:06;;;;;;;;;;;;;;;9.01;40.65;100100.56;5249710;27;34896;-90
2022/04/12 07:18:35;;;;;;;;;;;;;;;9.43;41.38;100092.78;5250435;27;34846;-90
2022/04/12 07:21:03;;;;;;;;;;;;;;;9.44;42.09;100102.25;5250309;27;34126;-91
2022/04/12 07:23:35;;;;;;;;;;;;;;;9.33;42.53;100110.91;5255393;27;33933;-91
2022/04/12 07:26:03;;;;;;;;;;;;;;;9.92;41.40;100106.44;5249652;27;33603;-91
2022/04/12 07:28:32;;;;;;;;;;;;;;;9.57;41.76;100110.00;5249730;27;34263;-89
2022/04/12 07:31:04;;;;;;;;;;;;;;;9.77;41.45;100107.34;5249704;27;33408;-90
2022/04/12 07:33:33;;;;;;;;;;;;;;;9.85;41.43;100109.06;5249888;27;33702;-88
2022/04/12 07:36:02;;;;;;;;;;;;;;;10.36;40.55;100101.94;5255092;27;34904;-90
2022/04/12 07:38:35;;;;;;;;;;;;;;;9.84;41.44;100108.22;5249333;27;36245;-89
2022/04/12 07:41:04;;;;;;;;;;;;;;;10.17;40.19;100108.91;5247915;27;33833;-91
2022/04/12 07:43:34;;;;;;;;;;;;;;;9.96;40.88;100107.31;5249643;27;34338;-91
2022/04/12 07:46:09;;;;;;;;;;;;;;;10.06;40.14;100111.56;5252453;27;34387;-90
2022/04/12 07:48:52;;;;;;;;;;;;;;;10.93;39.16;100110.22;5248785;27;33897;-89
2022/04/12 07:51:24;;;;;;;;;;;;;;;10.76;39.00;100114.66;5254924;27;32930;-90
2022/04/12 07:53:55;;;;;;;;;;;;;;;10.29;39.44;100118.41;5246101;27;34582;-92
2022/04/12 07:56:26;;;;;;;;;;;;;;;11.16;38.40;100112.59;5247965;27;34471;-90
2022/04/12 07:58:56;;;;;;;;;;;;;;;10.31;39.03;100122.72;5249218;27;34565;-89
2022/04/12 08:01:31;;;;;;;;;;;;;;;11.02;38.37;100128.31;5249286;27;33643;-89
2022/04/12 08:04:00;;;;;;;;;;;;;;;10.78;38.58;100121.56;5251710;27;34056;-91
2022/04/12 08:06:30;;;;;;;;;;;;;;;11.42;37.45;100125.34;5252181;27;34094;-91
2022/04/12 08:09:03;;;;;;;;;;;;;;;11.24;37.35;100122.94;5226532;27;34864;-89
2022/04/12 08:11:32;;;;;;;;;;;;;;;11.18;37.71;100122.97;5246446;27;32314;-90
2022/04/12 08:14:03;;;;;;;;;;;;;;;10.76;37.32;100130.25;5247212;27;34066;-90
2022/04/12 08:16:32;;;;;;;;;;;;;;;11.27;37.29;100130.69;5247800;27;33876;-91
2022/04/12 08:19:03;;;;;;;;;;;;;;;11.19;37.81;100130.78;5254583;27;34442;-88
2022/04/12 08:21:35;;;;;;;;;;;;;;;11.47;37.80;100131.34;5249479;27;33170;-93
2022/04/12 08:24:08;;;;;;;;;;;;;;;11.66;37.27;100125.97;5250311;27;33523;-89
2022/04/12 08:26:39;;;;;;;;;;;;;;;11.61;38.10;100132.97;5229491;27;34307;-89
2022/04/12 08:29:12;;;;;;;;;;;;;;;11.87;37.23;100136.19;5246664;27;34421;-90
2022/04/12 08:31:44;;;;;;;;;;;;;;;12.52;36.17;100135.37;5247933;27;33824;-90
2022/04/12 08:34:13;;;;;;;;;;;;;;;12.65;35.36;100133.44;5254796;27;34729;-88
2022/04/12 08:36:44;;;;;;;;;;;;;;;12.22;36.44;100132.28;5248810;27;34003;-91
2022/04/12 08:39:15;;;;;;;;;;;;;;;12.23;34.91;100134.03;5229450;27;33817;-92
2022/04/12 08:41:43;;;;;;;;;;;;;;;12.02;35.27;100131.69;5229704;27;34514;-92
2022/04/12 08:44:12;;;;;;;;;;;;;;;12.91;33.82;100136.53;5229299;27;35221;-93
2022/04/12 08:46:42;;;;;;;;;;;;;;;12.46;34.60;100132.84;5235062;27;35004;-89
2022/04/12 08:49:11;;;;;;;;;;;;;;;12.63;34.66;100128.25;5249175;27;34561;-89
2022/04/12 08:51:40;;;;;;;;;;;;;;;12.77;34.55;100134.12;5228861;27;34022;-90
2022/04/12 08:54:10;;;;;;;;;;;;;;;13.13;35.22;100131.81;5248973;27;34939;-89
2022/04/12 08:56:45;;;;;;;;;;;;;;;12.77;34.62;100141.06;5229360;27;35382;-92
2022/04/12 08:59:21;;;;;;;;;;;;;;;12.94;34.17;100130.41;5246917;27;33856;-89
2022/04/12 09:01:50;;;;;;;;;;;;;;;13.32;33.63;100128.94;5233014;27;33956;-92
2022/04/12 09:04:20;;;;;;;;;;;;;;;13.53;34.38;100127.69;5248456;27;34247;-91
2022/04/12 09:06:52;;;;;;;;;;;;;;;13.71;30.88;100122.13;5229263;27;34493;-90
2022/04/12 09:09:22;;;;;;;;;;;;;;;13.53;31.34;100125.97;5248836;27;34309;-91
2022/04/12 09:12:02;;;;;;;;;;;;;;;13.93;31.69;100117.34;5248296;27;33692;-90
2022/04/12 09:14:39;;;;;;;;;;;;;;;14.11;31.13;100116.16;5249712;27;34532;-92
2022/04/12 09:17:09;;;;;;;;;;;;;;;14.22;30.87;100114.16;5254868;27;34220;-90
2022/04/12 09:19:41;;;;;;;;;;;;;;;14.02;31.03;100111.97;5248937;27;34489;-89
2022/04/12 09:22:10;;;;;;;;;;;;;;;14.24;31.99;100107.16;5246423;27;33126;-91
2022/04/12 09:24:43;;;;;;;;;;;;;;;14.62;29.66;100107.22;5248052;27;33707;-89
2022/04/12 09:27:17;;;;;;;;;;;;;;;14.88;29.34;100099.62;5247381;27;32558;-89
2022/04/12 09:29:49;;;;;;;;;;;;;;;14.33;30.12;100110.44;5254519;27;34629;-90
2022/04/12 09:32:20;;;;;;;;;;;;;;;14.71;30.79;100109.59;5234650;27;34453;-89
2022/04/12 09:34:49;;;;;;;;;;;;;;;14.82;30.60;100102.38;5229839;27;36481;-92
2022/04/12 09:37:18;;;;;;;;;;;;;;;14.66;29.51;100098.41;5247386;27;36640;-90
2022/04/12 09:39:52;;;;;;;;;;;;;;;14.86;29.86;100098.81;5229497;27;35242;-92
2022/04/12 09:42:36;;;;;;;;;;;;;;;15.04;30.05;100100.09;5228836;27;34450;-89
2022/04/12 09:45:16;;;;;;;;;;;;;;;15.15;30.54;100099.84;5254508;27;34155;-90
2022/04/12 09:47:47;;;;;;;;;;;;;;;15.52;29.52;100096.25;5254295;27;34707;-90
2022/04/12 09:50:36;;;;;;;;;;;;;;;15.27;28.97;100096.03;5229571;27;34739;-91
2022/04/12 09:53:13;;;;;;;;;;;;;;;14.85;29.29;100089.25;5249572;27;34219;-88
2022/04/12 09:55:42;;;;;;;;;;;;;;;14.89;29.17;100087.44;5249569;27;34489;-89
2022/04/12 09:58:13;;;;;;;;;;;;;;;15.17;29.36;100086.72;5246961;27;35459;-89
2022/04/12 10:00:43;;;;;;;;;;;;;;;15.55;29.76;100077.87;5247871;27;34004;-90
2022/04/12 10:03:13;;;;;;;;;;;;;;;15.56;29.48;100080.44;5252622;27;33727;-89
2022/04/12 10:05:42;;;;;;;;;;;;;;;15.25;28.71;100077.81;5227697;27;34377;-89
2022/04/12 10:08:13;;;;;;;;;;;;;;;15.22;29.10;100075.28;5245844;27;36759;-89
2022/04/12 10:10:43;;;;;;;;;;;;;;;14.87;29.91;100076.16;5248380;27;34954;-88
2022/04/12 10:13:15;;;;;;;;;;;;;;;15.38;29.38;100070.47;5246756;27;33234;-88
2022/04/12 10:15:46;;;;;;;;;;;;;;;13.74;30.86;100062.09;5254196;27;34801;-88
2022/04/12 10:18:19;;;;;;;;;;;;;;;14.79;29.51;100065.91;5251437;27;34049;-89
2022/04/12 10:20:54;;;;;;;;;;;;;;;14.98;31.76;100065.41;5248268;27;34321;-89
2022/04/12 10:23:23;;;;;;;;;;;;;;;15.33;30.44;100065.38;5249841;27;33688;-92
2022/04/12 10:25:53;;;;;;;;;;;;;;;15.61;29.52;100059.41;5249252;27;35334;-90
2022/04/12 10:28:22;;;;;;;;;;;;;;;15.58;28.47;100054.25;5228069;27;34067;-92
2022/04/12 10:30:53;;;;;;;;;;;;;;;15.31;29.37;100048.88;5234843;27;34435;-91
2022/04/12 10:33:29;;;;;;;;;;;;;;;15.52;29.38;100052.66;5228824;27;33627;-90
2022/04/12 10:36:02;;;;;;;;;;;;;;;15.87;30.38;100049.97;5229487;27;35306;-89
2022/04/12 10:38:43;;;;;;;;;;;;;;;15.66;29.53;100052.28;5249226;27;34309;-89
2022/04/12 10:41:18;;;;;;;;;;;;;;;15.84;28.98;100042.22;5248425;27;35394;-91
2022/04/12 10:43:52;;;;;;;;;;;;;;;15.72;29.33;100039.06;5250002;27;34242;-90
2022/04/12 10:46:21;;;;;;;;;;;;;;;15.84;29.89;100039.59;5255906;27;34199;-91
2022/04/12 10:48:54;;;;;;;;;;;;;;;15.81;30.08;100037.94;5250046;27;33986;-90
2022/04/12 10:51:30;;;;;;;;;;;;;;;16.27;29.90;100040.94;5250059;27;34435;-89
2022/04/12 10:53:59;;;;;;;;;;;;;;;15.90;28.78;100035.06;5254020;27;33759;-89
2022/04/12 10:56:27;;;;;;;;;;;;;;;16.37;27.35;100037.13;5249513;27;33251;-89
2022/04/12 10:58:56;;;;;;;;;;;;;;;16.02;28.45;100028.59;5249023;27;33944;-89
2022/04/12 11:01:30;;;;;;;;;;;;;;;16.04;29.98;100025.91;5255203;27;35174;-91
2022/04/12 11:04:00;;;;;;;;;;;;;;;16.27;30.12;100033.09;5249357;27;33749;-91
2022/04/12 11:06:29;;;;;;;;;;;;;;;15.92;28.24;100021.91;5249942;27;34263;-91
2022/04/12 11:09:11;;;;;;;;;;;;;;;15.92;28.43;100020.19;5249107;27;33942;-90
2022/04/12 11:11:41;;;;;;;;;;;;;;;16.45;29.19;100018.53;5251978;27;35108;-89
2022/04/12 11:14:22;;;;;;;;;;;;;;;16.79;27.93;100020.94;5230378;27;34636;-91
2022/04/12 11:16:55;;;;;;;;;;;;;;;16.88;28.37;100015.41;5255717;27;34539;-88
2022/04/12 11:19:24;;;;;;;;;;;;;;;17.09;26.24;100011.19;5249113;27;34150;-89
2022/04/12 11:22:02;;;;;;;;;;;;;;;17.18;28.33;100002.13;5249039;27;33991;-91
2022/04/12 11:24:31;;;;;;;;;;;;;;;17.05;27.43;99991.22;5249599;27;33844;-88
2022/04/12 11:27:07;;;;;;;;;;;;;;;16.75;27.69;99991.34;5250156;27;34773;-89
2022/04/12 11:29:36;;;;;;;;;;;;;;;16.54;28.19;99998.16;5250887;27;34956;-89
2022/04/12 11:32:09;;;;;;;;;;;;;;;17.02;27.94;99994.81;5254879;27;34464;-91
2022/04/12 11:34:38;;;;;;;;;;;;;;;16.95;27.03;99995.94;5249307;27;33634;-91
2022/04/12 11:37:08;;;;;;;;;;;;;;;17.35;28.18;99991.91;5249455;27;34188;-90
2022/04/12 11:39:37;;;;;;;;;;;;;;;17.42;27.71;99985.53;5249052;27;34572;-88
2022/04/12 11:42:07;;;;;;;;;;;;;;;17.96;27.71;99982.69;5249236;27;34411;-89
2022/04/12 11:44:35;;;;;;;;;;;;;;;17.98;26.20;99994.00;5255276;27;33313;-87
2022/04/12 11:47:04;;;;;;;;;;;;;;;17.83;25.93;99991.03;5249507;27;34863;-88
2022/04/12 11:49:35;;;;;;;;;;;;;;;17.36;26.79;99988.38;5249332;27;33981;-89
2022/04/12 11:52:04;;;;;;;;;;;;;;;16.90;27.17;99991.78;5248739;27;34376;-87
2022/04/12 11:54:33;;;;;;;;;;;;;;;17.37;26.09;99992.72;5248787;27;34155;-89
2022/04/12 11:57:06;;;;;;;;;;;;;;;17.60;25.98;99994.47;5253949;27;34664;-88
2022/04/12 11:59:35;;;;;;;;;;;;;;;17.88;26.13;99993.50;5255467;27;33852;-88
2022/04/12 12:02:04;;;;;;;;;;;;;;;17.92;25.69;99989.81;5237051;27;33781;-88
2022/04/12 12:04:33;;;;;;;;;;;;;;;18.03;25.14;99981.53;5259071;27;34987;-91
2022/04/12 12:07:04;;;;;;;;;;;;;;;17.31;26.38;99976.34;5249666;27;34026;-89
2022/04/12 12:09:34;;;;;;;;;;;;;;;17.54;26.24;99979.00;5249543;27;34101;-89
2022/04/12 12:12:05;;;;;;;;;;;;;;;18.07;25.42;99977.84;5255005;27;34457;-89
2022/04/12 12:14:34;;;;;;;;;;;;;;;18.55;24.99;99974.16;5248859;27;33795;-88
2022/04/12 12:17:03;;;;;;;;;;;;;;;17.86;25.90;99977.78;5249225;27;34083;-89
2022/04/12 12:19:37;;;;;;;;;;;;;;;18.56;26.26;99970.63;5248686;27;33915;-88
2022/04/12 12:22:08;;;;;;;;;;;;;;;18.58;26.32;99970.56;5248591;27;33829;-88
2022/04/12 12:24:52;;;;;;;;;;;;;;;18.82;25.73;99979.22;5251645;27;33959;-90
2022/04/12 12:27:29;;;;;;;;;;;;;;;18.40;24.97;99966.91;5254365;27;34862;-88
2022/04/12 12:30:01;;;;;;;;;;;;;;;18.87;25.71;99966.72;5248370;27;34385;-88
2022/04/12 12:32:36;;;;;;;;;;;;;;;18.86;24.86;99971.13;5248579;27;34631;-89
2022/04/12 12:35:05;;;;;;;;;;;;;;;19.44;23.95;99969.50;5248565;27;34298;-88
2022/04/12 12:37:35;;;;;;;;;;;;;;;19.41;23.85;99970.47;5248604;27;33899;-90
2022/04/12 12:40:05;;;;;;;;;;;;;;;19.49;24.96;99965.72;5249206;27;35102;-87
2022/04/12 12:42:37;;;;;;;;;;;;;;;19.85;24.29;99966.75;5254968;27;34957;-89
2022/04/12 12:45:10;;;;;;;;;;;;;;;19.95;23.56;99960.12;5249408;27;33719;-85
2022/04/12 12:47:38;;;;;;;;;;;;;;;20.08;24.16;99952.47;5249316;27;34641;-86
2022/04/12 12:50:08;;;;;;;;;;;;;;;19.61;23.07;99956.41;5249272;27;34265;-88
2022/04/12 12:52:38;;;;;;;;;;;;;;;20.08;23.90;99949.84;5248618;27;34200;-86
2022/04/12 12:55:07;;;;;;;;;;;;;;;19.58;22.90;99951.28;5256854;27;33942;-87
2022/04/12 12:57:37;;;;;;;;;;;;;;;20.43;23.06;99943.72;5250062;27;34200;-87
2022/04/12 13:00:05;;;;;;;;;;;;;;;19.47;23.69;99943.03;5249415;27;34168;-88
2022/04/12 13:02:34;;;;;;;;;;;;;;;18.84;25.73;99944.03;5250040;27;34199;-87